createdAt,value
2022-12-17T00:00:53.834Z,100.00
2022-12-17T00:03:42.105Z,100.00
2022-12-17T00:06:45.792Z,100.00
2022-12-17T00:09:34.063Z,100.00
2022-12-17T00:12:19.889Z,100.00
2022-12-17T00:15:07.461Z,100.00
2022-12-17T00:17:53.144Z,100.00
2022-12-17T00:20:40.109Z,100.00
2022-12-17T00:23:31.779Z,100.00
2022-12-17T00:26:20.460Z,100.00
2022-12-17T00:29:06.092Z,100.00
2022-12-17T00:31:54.580Z,100.00
2022-12-17T00:34:42.291Z,100.00
2022-12-17T00:37:27.935Z,100.00
2022-12-17T00:40:13.747Z,100.00
2022-12-17T00:43:00.503Z,100.00
2022-12-17T00:45:46.972Z,100.00
2022-12-17T00:48:36.734Z,100.00
2022-12-17T00:51:22.712Z,100.00
2022-12-17T00:54:13.174Z,100.00
2022-12-17T00:56:58.594Z,100.00
2022-12-17T00:59:44.622Z,100.00
2022-12-17T01:02:30.844Z,100.00
2022-12-17T01:05:21.357Z,100.00
2022-12-17T01:08:06.923Z,100.00
2022-12-17T01:10:54.619Z,100.00
2022-12-17T01:13:44.713Z,100.00
2022-12-17T01:16:33.279Z,100.00
2022-12-17T01:19:19.782Z,100.00
2022-12-17T01:22:05.496Z,100.00
2022-12-17T01:24:52.000Z,100.00
2022-12-17T01:27:38.116Z,100.00
2022-12-17T01:30:24.819Z,100.00
2022-12-17T01:33:11.244Z,100.00
2022-12-17T01:35:57.315Z,100.00
2022-12-17T01:38:43.554Z,100.00
2022-12-17T01:41:29.950Z,100.00
2022-12-17T01:44:16.242Z,100.00
2022-12-17T01:47:09.611Z,100.00
2022-12-17T01:49:56.123Z,100.00
2022-12-17T01:52:41.830Z,100.00
2022-12-17T01:55:27.703Z,100.00
2022-12-17T01:58:16.347Z,100.00
2022-12-17T02:01:02.739Z,100.00
2022-12-17T02:03:48.272Z,100.00
2022-12-17T02:06:51.903Z,100.00
2022-12-17T02:09:53.406Z,100.00
2022-12-17T02:13:02.020Z,100.00
2022-12-17T02:15:55.480Z,100.00
2022-12-17T02:18:49.096Z,100.00
2022-12-17T02:21:35.797Z,100.00
2022-12-17T02:24:53.075Z,100.00
2022-12-17T02:27:39.945Z,100.00
2022-12-17T02:30:26.980Z,100.00
2022-12-17T02:33:13.670Z,100.00
2022-12-17T02:36:04.843Z,100.00
2022-12-17T02:38:52.359Z,100.00
2022-12-17T02:42:00.190Z,100.00
2022-12-17T02:44:47.832Z,100.00
2022-12-17T02:47:34.872Z,100.00
2022-12-17T02:50:20.883Z,100.00
2022-12-17T02:53:07.731Z,100.00
2022-12-17T02:55:54.765Z,100.00
2022-12-17T02:58:41.427Z,100.00
2022-12-17T03:01:27.474Z,100.00
2022-12-17T03:04:13.824Z,100.00
2022-12-17T03:06:59.440Z,100.00
2022-12-17T03:09:45.249Z,100.00
2022-12-17T03:12:30.955Z,100.00
2022-12-17T03:15:17.250Z,100.00
2022-12-17T03:18:03.000Z,100.00
2022-12-17T03:20:48.870Z,100.00
2022-12-17T03:23:36.103Z,100.00
2022-12-17T03:26:23.028Z,100.00
2022-12-17T03:29:10.148Z,100.00
2022-12-17T03:31:56.464Z,100.00
2022-12-17T03:34:42.267Z,100.00
2022-12-17T03:37:29.214Z,100.00
2022-12-17T03:40:15.562Z,100.00
2022-12-17T03:43:01.501Z,100.00
2022-12-17T03:45:48.152Z,100.00
2022-12-17T03:48:34.895Z,100.00
2022-12-17T03:51:21.107Z,100.00
2022-12-17T03:54:07.634Z,100.00
2022-12-17T03:56:54.039Z,100.00
2022-12-17T03:59:40.204Z,100.00
2022-12-17T04:05:41.632Z,100.00
2022-12-17T04:08:27.414Z,100.00
2022-12-17T04:11:14.176Z,100.00
2022-12-17T04:14:02.004Z,100.00
2022-12-17T04:16:48.569Z,100.00
2022-12-17T04:19:43.155Z,100.00
2022-12-17T04:22:31.975Z,100.00
2022-12-17T04:25:17.860Z,100.00
2022-12-17T04:28:06.218Z,100.00
2022-12-17T04:30:52.138Z,100.00
2022-12-17T04:33:38.617Z,100.00
2022-12-17T04:36:26.152Z,100.00
2022-12-17T04:39:13.774Z,100.00
2022-12-17T04:41:59.739Z,100.00
2022-12-17T04:44:46.322Z,100.00
2022-12-17T04:47:32.007Z,100.00
2022-12-17T04:50:18.125Z,100.00
2022-12-17T04:53:04.179Z,100.00
2022-12-17T04:55:52.840Z,100.00
2022-12-17T04:58:43.479Z,100.00
2022-12-17T05:04:29.475Z,100.00
2022-12-17T05:07:15.591Z,100.00
2022-12-17T05:13:37.055Z,100.00
2022-12-17T05:16:27.800Z,100.00
2022-12-17T05:19:13.321Z,100.00
2022-12-17T05:21:59.213Z,100.00
2022-12-17T05:27:50.481Z,100.00
2022-12-17T05:30:53.524Z,100.00
2022-12-17T05:33:39.911Z,100.00
2022-12-17T05:36:27.409Z,100.00
2022-12-17T05:39:13.563Z,100.00
2022-12-17T05:41:59.249Z,100.00
2022-12-17T05:44:46.623Z,100.00
2022-12-17T05:47:37.430Z,100.00
2022-12-17T05:53:27.964Z,100.00
2022-12-17T05:56:37.372Z,100.00
2022-12-17T05:59:25.014Z,100.00
2022-12-17T06:02:20.582Z,100.00
2022-12-17T06:05:10.393Z,100.00
2022-12-17T06:07:56.297Z,100.00
2022-12-17T06:10:44.887Z,100.00
2022-12-17T06:13:36.679Z,100.00
2022-12-17T06:19:42.176Z,100.00
2022-12-17T06:22:30.658Z,100.00
2022-12-17T06:28:31.373Z,100.00
2022-12-17T06:31:17.642Z,100.00
2022-12-17T06:34:03.644Z,100.00
2022-12-17T06:36:49.968Z,100.00
2022-12-17T06:39:35.699Z,100.00
2022-12-17T06:42:23.117Z,100.00
2022-12-17T06:45:10.156Z,100.00
2022-12-17T06:47:58.752Z,100.00
2022-12-17T06:50:44.619Z,100.00
2022-12-17T06:53:31.010Z,100.00
2022-12-17T06:59:35.157Z,100.00
2022-12-17T07:02:24.778Z,100.00
2022-12-17T07:05:10.352Z,100.00
2022-12-17T07:07:57.721Z,100.00
2022-12-17T07:10:43.833Z,100.00
2022-12-17T07:13:29.991Z,100.00
2022-12-17T07:16:15.822Z,100.00
2022-12-17T07:19:02.619Z,100.00
2022-12-17T07:21:48.524Z,100.00
2022-12-17T07:24:34.480Z,100.00
2022-12-17T07:27:20.118Z,100.00
2022-12-17T07:30:06.329Z,100.00
2022-12-17T07:32:52.811Z,100.00
2022-12-17T07:36:04.748Z,100.00
2022-12-17T07:38:51.841Z,100.00
2022-12-17T07:41:37.366Z,99.83
2022-12-17T07:44:23.647Z,99.53
2022-12-17T07:47:09.253Z,99.54
2022-12-17T07:49:58.686Z,99.58
2022-12-17T07:52:45.300Z,99.29
2022-12-17T07:55:31.207Z,99.27
2022-12-17T07:58:24.678Z,98.72
2022-12-17T08:01:21.301Z,98.29
2022-12-17T08:04:08.442Z,98.03
2022-12-17T08:07:00.667Z,97.46
2022-12-17T08:09:48.287Z,96.26
2022-12-17T08:12:34.367Z,96.61
2022-12-17T08:15:20.631Z,96.10
2022-12-17T08:18:06.681Z,95.59
2022-12-17T08:20:52.516Z,96.06
2022-12-17T08:23:47.247Z,95.63
2022-12-17T08:26:35.200Z,94.79
2022-12-17T08:29:21.808Z,94.22
2022-12-17T08:32:14.662Z,94.01
2022-12-17T08:35:07.182Z,94.50
2022-12-17T08:37:57.371Z,93.64
2022-12-17T08:40:45.690Z,93.40
2022-12-17T08:43:32.393Z,93.91
2022-12-17T08:46:21.868Z,92.93
2022-12-17T08:49:08.193Z,91.56
2022-12-17T08:51:54.793Z,91.07
2022-12-17T08:54:40.463Z,90.49
2022-12-17T08:57:44.033Z,90.01
2022-12-17T09:00:57.725Z,88.97
2022-12-17T09:03:49.482Z,88.53
2022-12-17T09:06:39.383Z,88.97
2022-12-17T09:09:31.006Z,88.83
2022-12-17T09:12:17.539Z,88.76
2022-12-17T09:15:05.723Z,88.61
2022-12-17T09:17:51.211Z,87.88
2022-12-17T09:20:37.559Z,87.24
2022-12-17T09:23:23.002Z,85.39
2022-12-17T09:26:20.944Z,84.28
2022-12-17T09:29:07.614Z,84.24
2022-12-17T09:31:55.231Z,84.52
2022-12-17T09:34:41.291Z,84.71
2022-12-17T09:37:30.919Z,84.06
2022-12-17T09:40:16.768Z,83.88
2022-12-17T09:43:19.232Z,84.73
2022-12-17T09:49:37.182Z,79.38
2022-12-17T09:52:38.736Z,75.27
2022-12-17T09:55:44.273Z,72.02
2022-12-17T09:58:41.306Z,67.57
2022-12-17T10:01:39.252Z,66.91
2022-12-17T10:05:01.880Z,67.17
2022-12-17T10:07:54.742Z,67.12
2022-12-17T10:10:49.863Z,67.04
2022-12-17T10:13:41.573Z,69.32
2022-12-17T10:20:14.283Z,72.86
2022-12-17T10:23:08.665Z,74.14
2022-12-17T10:25:57.167Z,76.23
2022-12-17T10:28:44.816Z,77.79
2022-12-17T10:31:39.425Z,78.73
2022-12-17T10:34:38.330Z,79.57
2022-12-17T10:37:33.663Z,79.24
2022-12-17T10:40:21.392Z,79.34
2022-12-17T10:43:07.537Z,78.27
2022-12-17T10:45:55.012Z,78.18
2022-12-17T10:48:44.853Z,78.53
2022-12-17T10:54:52.395Z,79.92
2022-12-17T10:58:21.664Z,80.78
2022-12-17T11:01:15.560Z,80.94
2022-12-17T11:04:17.364Z,80.22
2022-12-17T11:07:15.804Z,79.97
2022-12-17T11:10:09.755Z,79.13
2022-12-17T11:13:08.238Z,79.40
2022-12-17T11:16:17.150Z,78.76
2022-12-17T11:19:09.912Z,78.06
2022-12-17T11:22:02.022Z,77.71
2022-12-17T11:25:01.000Z,77.40
2022-12-17T11:27:54.582Z,76.80
2022-12-17T11:30:42.052Z,77.79
2022-12-17T11:33:46.447Z,77.90
2022-12-17T11:37:01.221Z,77.80
2022-12-17T11:40:34.930Z,77.70
2022-12-17T11:43:39.971Z,77.74
2022-12-17T11:46:43.550Z,78.15
2022-12-17T11:49:57.866Z,78.28
2022-12-17T11:53:11.517Z,77.81
2022-12-17T11:56:05.197Z,77.07
2022-12-17T11:59:09.811Z,77.07
2022-12-17T12:02:13.034Z,76.43
2022-12-17T12:05:20.542Z,76.73
2022-12-17T12:08:32.454Z,75.71
2022-12-17T12:11:33.776Z,75.31
2022-12-17T12:14:48.565Z,74.95
2022-12-17T12:17:36.990Z,74.83
2022-12-17T12:20:45.005Z,75.10
2022-12-17T12:23:57.497Z,75.52
2022-12-17T12:27:06.095Z,75.76
2022-12-17T12:30:09.078Z,75.78
2022-12-17T12:33:32.248Z,76.24
2022-12-17T12:36:39.012Z,76.12
2022-12-17T12:39:30.547Z,76.78
2022-12-17T12:42:34.128Z,76.52
2022-12-17T12:45:25.779Z,77.05
2022-12-17T12:48:21.211Z,77.29
2022-12-17T12:51:37.196Z,77.61
2022-12-17T12:54:45.596Z,77.51
2022-12-17T12:57:44.757Z,77.74
2022-12-17T13:01:05.634Z,77.55
2022-12-17T13:03:54.120Z,77.59
2022-12-17T13:06:54.451Z,78.00
2022-12-17T13:09:32.491Z,77.86
2022-12-17T13:12:04.537Z,77.76
2022-12-17T13:14:44.174Z,77.78
2022-12-17T13:17:17.477Z,78.33
2022-12-17T13:20:05.272Z,78.12
2022-12-17T13:22:35.060Z,78.52
2022-12-17T13:25:23.283Z,78.75
2022-12-17T13:27:50.930Z,78.72
2022-12-17T13:30:18.245Z,79.10
2022-12-17T13:32:45.581Z,79.32
2022-12-17T13:35:13.027Z,79.31
2022-12-17T13:38:08.848Z,79.28
2022-12-17T13:41:09.770Z,79.48
2022-12-17T13:43:49.332Z,80.06
2022-12-17T13:46:46.643Z,80.51
2022-12-17T13:49:22.207Z,80.91
2022-12-17T13:52:15.368Z,81.07
2022-12-17T13:54:42.601Z,81.32
2022-12-17T13:57:17.678Z,81.26
2022-12-17T13:59:58.686Z,81.37
2022-12-17T14:02:34.559Z,81.35
2022-12-17T14:05:07.876Z,81.94
2022-12-17T14:07:39.222Z,81.80
2022-12-17T14:10:15.831Z,82.35
2022-12-17T14:12:43.873Z,82.40
2022-12-17T14:15:22.650Z,82.74
2022-12-17T14:17:51.129Z,82.91
2022-12-17T14:20:22.653Z,83.49
2022-12-17T14:23:03.255Z,83.68
2022-12-17T14:25:39.451Z,83.46
2022-12-17T14:28:22.938Z,83.86
2022-12-17T14:31:25.051Z,84.06
2022-12-17T14:36:59.251Z,84.26
2022-12-17T14:39:47.219Z,84.15
2022-12-17T14:42:29.644Z,84.44
2022-12-17T14:45:00.449Z,85.26
2022-12-17T14:47:27.477Z,85.02
2022-12-17T14:49:55.775Z,85.22
2022-12-17T14:52:49.010Z,85.28
2022-12-17T14:55:24.312Z,84.84
2022-12-17T14:57:52.597Z,84.66
2022-12-17T15:00:42.473Z,84.05
2022-12-17T15:03:21.419Z,84.28
2022-12-17T15:06:13.658Z,83.70
2022-12-17T15:08:44.415Z,84.05
2022-12-17T15:11:14.146Z,84.18
2022-12-17T15:13:41.667Z,84.02
2022-12-17T15:16:08.852Z,84.78
2022-12-17T15:18:38.946Z,84.79
2022-12-17T15:21:06.934Z,84.63
2022-12-17T15:23:44.678Z,83.93
2022-12-17T15:26:18.039Z,84.07
2022-12-17T15:29:15.371Z,83.62
2022-12-17T15:31:45.167Z,83.30
2022-12-17T15:34:12.967Z,84.01
2022-12-17T15:36:42.312Z,83.74
2022-12-17T15:39:11.635Z,83.81
2022-12-17T15:41:59.125Z,84.25
2022-12-17T15:44:36.069Z,83.92
2022-12-17T15:47:05.238Z,83.96
2022-12-17T15:49:33.394Z,83.92
2022-12-17T15:52:03.734Z,83.63
2022-12-17T15:54:56.630Z,83.59
2022-12-17T15:57:26.449Z,83.94
2022-12-17T16:00:04.625Z,84.14
2022-12-17T16:02:32.805Z,83.28
2022-12-17T16:05:01.138Z,83.05
2022-12-17T16:07:29.552Z,83.40
2022-12-17T16:10:01.653Z,83.31
2022-12-17T16:12:32.056Z,83.43
2022-12-17T16:14:59.436Z,84.15
2022-12-17T16:17:27.414Z,83.83
2022-12-17T16:19:54.939Z,84.15
2022-12-17T16:22:22.323Z,84.26
2022-12-17T16:24:49.947Z,83.79
2022-12-17T16:27:19.836Z,83.76
2022-12-17T16:29:48.362Z,83.91
2022-12-17T16:32:20.726Z,84.26
2022-12-17T16:34:50.548Z,83.96
2022-12-17T16:37:17.682Z,84.18
2022-12-17T16:39:53.963Z,83.67
2022-12-17T16:45:09.736Z,83.19
2022-12-17T16:47:36.930Z,83.95
2022-12-17T16:50:06.302Z,83.66
2022-12-17T16:52:34.071Z,83.93
2022-12-17T16:55:03.209Z,83.80
2022-12-17T16:57:33.113Z,83.96
2022-12-17T17:00:01.781Z,83.52
2022-12-17T17:02:29.285Z,83.74
2022-12-17T17:04:56.999Z,83.27
2022-12-17T17:07:24.084Z,83.41
2022-12-17T17:09:51.583Z,83.64
2022-12-17T17:12:21.748Z,83.04
2022-12-17T17:14:54.715Z,83.15
2022-12-17T17:17:54.660Z,83.24
2022-12-17T17:20:31.078Z,82.97
2022-12-17T17:22:58.674Z,82.89
2022-12-17T17:25:38.511Z,83.65
2022-12-17T17:28:11.373Z,83.65
2022-12-17T17:30:38.674Z,83.26
2022-12-17T17:35:54.276Z,83.31
2022-12-17T17:38:27.916Z,83.00
2022-12-17T17:43:50.212Z,82.51
2022-12-17T17:46:28.855Z,83.01
2022-12-17T17:49:17.159Z,82.97
2022-12-17T17:54:35.750Z,82.21
2022-12-17T17:57:05.454Z,82.55
2022-12-17T17:59:42.295Z,82.72
2022-12-17T18:02:28.740Z,83.04
2022-12-17T18:05:12.030Z,82.71
2022-12-17T18:07:39.073Z,82.67
2022-12-17T18:10:07.734Z,82.62
2022-12-17T18:12:57.259Z,83.12
2022-12-17T18:15:26.974Z,82.57
2022-12-17T18:17:54.007Z,82.27
2022-12-17T18:23:32.838Z,82.82
2022-12-17T18:26:21.583Z,82.87
2022-12-17T18:28:54.595Z,82.84
2022-12-17T18:31:24.502Z,82.96
2022-12-17T18:34:00.663Z,82.54
2022-12-17T18:36:34.221Z,82.65
2022-12-17T18:39:13.944Z,82.81
2022-12-17T18:42:00.522Z,82.18
2022-12-17T18:44:29.849Z,82.48
2022-12-17T18:46:58.867Z,82.53
2022-12-17T18:49:32.724Z,82.48
2022-12-17T18:51:59.699Z,82.42
2022-12-17T18:54:42.144Z,81.45
2022-12-17T18:57:11.902Z,81.52
2022-12-17T18:59:41.259Z,82.03
2022-12-17T19:02:13.318Z,81.66
2022-12-17T19:04:41.907Z,82.06
2022-12-17T19:07:19.041Z,82.03
2022-12-17T19:09:46.139Z,82.49
2022-12-17T19:12:13.483Z,82.00
2022-12-17T19:14:40.506Z,81.80
2022-12-17T19:17:07.975Z,81.31
2022-12-17T19:19:35.187Z,81.84
2022-12-17T19:22:03.571Z,81.83
2022-12-17T19:24:30.863Z,81.79
2022-12-17T19:27:00.171Z,81.93
2022-12-17T19:29:27.423Z,81.49
2022-12-17T19:31:54.776Z,81.86
2022-12-17T19:34:22.406Z,81.90
2022-12-17T19:36:49.998Z,81.84
2022-12-17T19:39:20.107Z,81.88
2022-12-17T19:41:54.726Z,81.39
2022-12-17T19:44:25.265Z,81.30
2022-12-17T19:46:52.668Z,81.40
2022-12-17T19:49:19.686Z,80.66
2022-12-17T19:51:46.973Z,80.40
2022-12-17T19:54:30.847Z,80.32
2022-12-17T19:56:59.195Z,80.29
2022-12-17T19:59:26.567Z,80.28
2022-12-17T20:01:54.720Z,80.46
2022-12-17T20:04:21.913Z,80.48
2022-12-17T20:06:49.286Z,80.37
2022-12-17T20:09:18.452Z,80.46
2022-12-17T20:11:48.476Z,79.96
2022-12-17T20:14:23.399Z,80.45
2022-12-17T20:16:54.551Z,80.00
2022-12-17T20:19:33.516Z,80.26
2022-12-17T20:22:16.803Z,79.70
2022-12-17T20:24:45.594Z,80.24
2022-12-17T20:27:12.532Z,79.89
2022-12-17T20:29:39.936Z,79.93
2022-12-17T20:32:07.163Z,80.14
2022-12-17T20:34:34.753Z,79.93
2022-12-17T20:37:01.750Z,80.38
2022-12-17T20:39:29.737Z,80.22
2022-12-17T20:41:57.480Z,80.21
2022-12-17T20:44:25.011Z,80.12
2022-12-17T20:46:52.213Z,80.57
2022-12-17T20:49:19.630Z,80.72
2022-12-17T20:51:46.720Z,79.97
2022-12-17T20:54:14.259Z,79.56
2022-12-17T20:56:41.353Z,79.56
2022-12-17T20:59:13.382Z,79.35
2022-12-17T21:01:41.068Z,79.52
2022-12-17T21:04:08.549Z,80.00
2022-12-17T21:06:47.906Z,79.47
2022-12-17T21:09:18.598Z,79.68
2022-12-17T21:11:45.801Z,79.74
2022-12-17T21:14:16.537Z,79.75
2022-12-17T21:16:44.591Z,79.80
2022-12-17T21:19:15.402Z,80.07
2022-12-17T21:21:43.317Z,79.37
2022-12-17T21:24:11.152Z,79.41
2022-12-17T21:26:43.120Z,79.18
2022-12-17T21:29:17.965Z,79.11
2022-12-17T21:31:50.955Z,79.49
2022-12-17T21:34:23.924Z,79.28
2022-12-17T21:36:52.485Z,79.19
2022-12-17T21:39:26.501Z,78.76
2022-12-17T21:42:11.932Z,78.82
2022-12-17T21:44:39.703Z,78.96
2022-12-17T21:47:06.852Z,78.72
2022-12-17T21:49:34.825Z,79.42
2022-12-17T21:52:02.202Z,79.88
2022-12-17T21:54:30.145Z,80.02
2022-12-17T21:56:57.199Z,80.07
2022-12-17T21:59:24.584Z,80.02
2022-12-17T22:01:53.367Z,79.48
2022-12-17T22:04:21.035Z,79.22
2022-12-17T22:06:55.579Z,78.99
2022-12-17T22:10:14.213Z,79.45
2022-12-17T22:12:51.376Z,79.75
2022-12-17T22:15:31.126Z,79.75
2022-12-17T22:18:06.789Z,78.84
2022-12-17T22:20:36.757Z,79.12
2022-12-17T22:23:06.287Z,79.61
2022-12-17T22:25:38.643Z,79.01
2022-12-17T22:28:05.870Z,78.64
2022-12-17T22:30:51.895Z,78.00
2022-12-17T22:33:58.181Z,78.30
2022-12-17T22:38:23.027Z,77.79
2022-12-17T22:43:14.996Z,77.97
2022-12-17T22:44:48.658Z,78.30
2022-12-17T22:44:54.530Z,78.17
2022-12-17T22:47:23.423Z,77.72
2022-12-17T22:49:50.575Z,78.09
2022-12-17T22:52:21.043Z,78.22
2022-12-17T22:54:48.557Z,77.89
2022-12-17T22:57:34.393Z,78.02
2022-12-17T23:00:11.860Z,78.30
2022-12-17T23:02:39.413Z,78.02
2022-12-17T23:05:06.814Z,78.48
2022-12-17T23:07:34.564Z,78.19
2022-12-17T23:10:02.789Z,78.34
2022-12-17T23:12:49.563Z,78.85
2022-12-17T23:15:34.750Z,78.41
2022-12-17T23:18:05.170Z,79.07
2022-12-17T23:20:34.045Z,78.77
2022-12-17T23:23:01.798Z,78.57
2022-12-17T23:25:29.423Z,78.82
2022-12-17T23:27:57.027Z,78.52
2022-12-17T23:30:24.033Z,78.67
2022-12-17T23:32:52.166Z,78.45
2022-12-17T23:35:20.908Z,78.48
2022-12-17T23:37:49.549Z,78.84
2022-12-17T23:40:16.484Z,79.06
2022-12-17T23:42:44.018Z,79.11
2022-12-17T23:45:12.073Z,79.06
2022-12-17T23:47:41.334Z,78.39
2022-12-17T23:50:09.896Z,78.20
2022-12-17T23:52:37.555Z,78.43
2022-12-17T23:55:05.420Z,78.26
2022-12-17T23:57:32.996Z,78.37
